Latest Weather Observations for Mareeba

IDQ60801

Issued at 9:02 pm EST Wednesday 6 May 2015 (issued every 30 minutes, with the page automatically refreshed every 10 minutes)

About weather observations | Map of weather stations | Latest weather observations for QLD | Other Formats
Station Details ID: 031210 Name: MAREEBA AIRPORT Lat: -17.07 Lon: 145.43 Height: 471.93 m
Data from the previous 72 hours. | See also: Recent months at Mareeba
Date/Time
EST
Temp
°C
App
Temp
°C
Dew
Point
Rel
Hum
%
Delta-T
°C
Wind Press
QNH
hPa
Press
MSL
hPa
Rain
since 9 am
mm
Dir
 
Spd
km/h
Gust
km/h
Spd
kts
Gust
kts
06/09:00pm 19.6 17.4 12.1 62 4.3 S 15 17 8 9 1016.6 1014.3 0.0
06/08:30pm 19.6 18.2 12.1 62 4.3 SSE 11 17 6 9 1016.2 - 0.0
06/08:00pm 19.8 18.8 12.3 62 4.3 SE 9 13 5 7 1016.0 - 0.0
06/07:30pm 19.9 18.8 11.9 60 4.5 S 9 11 5 6 1015.6 - 0.0
06/07:00pm 21.3 20.1 11.6 54 5.5 SSE 9 15 5 8 1015.1 - 0.0
06/06:30pm 22.7 20.6 11.1 48 6.6 SE 13 17 7 9 1014.8 - 0.0
06/06:00pm 23.8 21.7 11.2 45 7.2 SE 13 24 7 13 1014.4 1012.1 0.0
06/05:30pm 25.3 22.1 11.1 41 8.2 SE 19 26 10 14 1014.0 - 0.0
06/05:00pm 26.3 22.5 11.2 38 8.7 SSE 22 32 12 17 1013.6 - 0.0
06/04:30pm 26.9 22.1 11.8 39 8.8 SE 28 37 15 20 1013.4 - 0.0
06/04:00pm 27.5 23.4 11.5 37 9.4 SE 24 37 13 20 1013.1 - 0.0
06/03:30pm 27.8 23.8 11.8 37 9.4 SE 24 33 13 18 1013.1 - 0.0
06/03:00pm 28.1 22.9 11.6 36 9.7 ESE 30 43 16 23 1013.3 1010.9 0.0
06/02:30pm 29.0 24.7 12.0 35 10.1 ESE 26 37 14 20 1013.5 - 0.0
06/02:00pm 28.9 23.7 10.1 31 10.8 ESE 28 41 15 22 1013.7 - 0.0
06/01:30pm 29.3 23.8 10.4 31 10.9 ESE 30 43 16 23 1014.0 - 0.0
06/01:00pm 29.0 23.9 10.6 32 10.7 SE 28 37 15 20 1014.3 - 0.0
06/12:30pm 28.6 24.9 11.6 34 10.0 SE 22 39 12 21 1014.9 - 0.0
06/12:00pm 27.7 23.9 12.5 39 9.0 E 24 35 13 19 1015.4 1013.1 0.0
06/11:30am 27.2 24.3 13.9 44 8.1 SE 22 30 12 16 1015.9 - 0.0
06/11:00am 26.0 23.7 14.1 47 7.2 SSE 19 26 10 14 1016.2 - 0.0
06/10:30am 25.3 23.2 14.7 51 6.5 SSE 19 24 10 13 1016.6 - 0.0
06/10:00am 24.8 24.0 16.0 58 5.5 S 15 22 8 12 1016.8 - 0.0
06/09:30am 23.7 23.5 15.7 61 4.9 SE 11 19 6 10 1016.7 - 0.0
06/09:00am 22.4 21.6 16.0 67 3.9 SE 15 20 8 11 1016.7 1014.4 0.0
06/08:30am 20.8 19.8 15.6 72 3.2 SSE 15 22 8 12 1016.6 - 0.0
06/08:00am 19.2 17.1 14.7 75 2.7 SSE 19 24 10 13 1016.6 - 0.0
06/07:30am 18.4 17.0 14.5 78 2.3 SE 15 22 8 12 1016.5 - 0.0
06/07:00am 17.6 16.0 15.0 85 1.5 SE 17 22 9 12 1016.2 - 0.0
06/06:30am 17.6 16.2 15.6 88 1.2 SSE 17 20 9 11 1015.9 - 0.0
06/06:00am 17.5 16.2 15.7 89 1.1 SE 17 20 9 11 1015.4 1013.1 0.0
06/05:30am 17.2 16.5 15.4 89 1.1 SSE 13 17 7 9 1015.1 - 0.0
06/05:00am 16.8 15.7 15.3 91 0.9 SE 15 19 8 10 1014.8 - 0.0
06/04:30am 15.5 16.2 13.5 88 1.1 SE 2 11 1 6 1014.7 - 0.0
06/04:00am 15.9 15.7 13.7 87 1.3 ESE 7 9 4 5 1014.6 - 0.0
06/03:30am 16.8 16.6 14.6 87 1.3 ESE 9 11 5 6 1014.6 - 0.0
06/03:00am 16.3 16.4 14.0 86 1.3 ESE 6 7 3 4 1014.5 1012.2 0.0
06/02:30am 17.8 18.2 15.2 85 1.6 E 7 11 4 6 1014.6 - 0.0
06/02:00am 17.3 17.1 14.8 85 1.5 ESE 9 11 5 6 1014.6 - 0.0
06/01:30am 17.7 17.6 15.0 84 1.6 SSE 9 13 5 7 1014.7 - 0.0
06/01:00am 18.3 17.7 15.7 85 1.6 SSE 13 19 7 10 1015.1 - 0.0
06/12:30am 18.0 17.8 15.8 87 1.3 SE 11 15 6 8 1015.2 - 0.0
06/12:00am 17.8 17.8 15.2 85 1.5 SE 9 11 5 6 1015.4 1013.1 0.0
 
Date/Time
EST
Temp
°C
App
Temp
°C
Dew
Point
Rel
Hum
%
Delta-T
°C
Wind Press
QNH
hPa
Press
MSL
hPa
Rain
since 9 am
mm
Dir
 
Spd
km/h
Gust
km/h
Spd
kts
Gust
kts
05/11:30pm 18.7 18.5 15.6 82 1.9 SE 11 17 6 9 1015.2 - 0.0
05/11:00pm 18.8 17.8 15.7 82 1.9 SE 15 19 8 10 1015.0 - 0.0
05/10:30pm 19.5 19.5 16.2 81 2.0 SE 11 15 6 8 1014.9 - 0.0
05/10:00pm 19.6 18.8 16.1 80 2.1 SSE 15 20 8 11 1014.7 - 0.0
05/09:30pm 19.9 19.5 16.2 79 2.3 SSE 13 19 7 10 1014.8 - 0.0
05/09:00pm 20.4 19.1 15.8 75 2.8 SSE 17 22 9 12 1014.5 1012.2 0.0
05/08:30pm 20.6 19.6 15.6 73 3.0 S 15 20 8 11 1014.2 - 0.0
05/08:00pm 20.4 22.1 16.2 77 2.6 S 2 7 1 4 1013.8 - 0.0
05/07:30pm 20.5 23.0 17.3 82 2.0 CALM 0 0 0 0 1013.4 - 0.0
05/07:00pm 21.3 23.8 17.3 78 2.5 CALM 0 0 0 0 1012.9 - 0.0
05/06:30pm 22.3 23.8 17.7 75 2.9 ESE 6 9 3 5 1012.5 - 0.0
05/06:00pm 23.1 24.4 17.6 71 3.5 N 7 13 4 7 1012.2 1009.9 0.0
05/05:30pm 24.5 25.3 17.2 63 4.6 NNE 9 17 5 9 1011.9 - 0.0
05/05:00pm 25.2 25.2 17.1 60 5.1 NNE 13 20 7 11 1011.7 - 0.0
05/04:30pm 25.8 25.7 16.9 58 5.6 NE 13 19 7 10 1011.7 - 0.0
05/04:00pm 27.3 27.3 17.2 54 6.4 NNE 13 20 7 11 1011.5 - 0.0
05/03:30pm 27.8 28.8 16.4 50 7.2 NE 6 15 3 8 1011.5 - 0.0
05/03:00pm 28.2 26.7 14.1 42 8.6 SSE 15 20 8 11 1011.6 1009.3 0.0
05/02:30pm 28.8 27.7 14.2 40 9.0 SE 13 20 7 11 1011.9 - 0.0
05/02:00pm 28.6 27.3 13.7 40 9.1 SE 13 17 7 9 1012.2 - 0.0
05/01:30pm 28.2 26.8 13.3 40 9.0 SSE 13 20 7 11 1012.7 - 0.0
05/01:00pm 28.5 26.5 12.8 38 9.4 ESE 15 24 8 13 1013.1 - 0.0
05/12:30pm 28.1 26.1 11.6 36 9.7 SSE 13 20 7 11 1013.6 - 0.0
05/12:00pm 28.3 26.6 12.6 38 9.4 SE 13 20 7 11 1014.1 1011.8 0.0
05/11:30am 27.4 27.1 13.4 42 8.4 ESE 7 15 4 8 1014.7 - 0.0
05/11:00am 26.7 26.8 14.5 47 7.5 NNE 7 13 4 7 1015.2 - 0.0
05/10:30am 26.7 27.9 16.0 52 6.7 ENE 4 15 2 8 1015.7 - 0.0
05/10:00am 25.1 24.8 15.4 55 6.0 SE 11 15 6 8 1015.9 - 0.0
05/09:30am 24.6 25.4 15.8 58 5.4 ENE 6 11 3 6 1015.9 - 0.0
05/09:00am 23.7 23.6 16.0 62 4.8 SE 11 17 6 9 1015.6 1013.3 0.0
05/08:30am 22.3 21.6 15.4 65 4.2 SE 13 20 7 11 1015.4 - 0.0
05/08:00am 21.3 19.8 15.4 69 3.6 SSE 17 20 9 11 1015.2 - 0.0
05/07:30am 20.0 19.8 16.6 81 2.1 SSE 13 17 7 9 1015.0 - 0.0
05/07:00am 18.4 18.4 16.2 87 1.3 S 11 13 6 7 1014.7 - 0.0
05/06:30am 17.8 17.7 16.0 89 1.1 SSE 11 15 6 8 1014.3 - 0.0
05/06:00am 17.5 18.1 15.7 89 1.1 SSE 7 9 4 5 1014.0 1011.7 0.0
05/05:30am 17.7 18.3 15.9 89 1.1 SSE 7 9 4 5 1014.0 - 0.0
05/05:00am 17.5 17.6 15.5 88 1.2 SE 9 13 5 7 1013.9 - 0.0
05/04:30am 18.4 18.8 16.2 87 1.3 SSE 9 11 5 6 1014.0 - 0.0
05/04:00am 19.0 19.9 16.6 86 1.5 SSE 7 9 4 5 1014.1 - 0.0
05/03:30am 19.9 21.2 17.5 86 1.5 S 7 9 4 5 1014.3 - 0.0
05/03:00am 19.8 22.7 18.3 91 0.9 CALM 0 0 0 0 1014.4 1012.1 0.0
05/02:30am 19.7 22.3 18.4 92 0.8 W 2 6 1 3 1014.5 - 0.0
05/02:00am 19.7 22.7 18.4 92 0.8 CALM 0 0 0 0 1014.7 - 0.0
05/01:30am 19.8 22.7 18.3 91 0.9 CALM 0 0 0 0 1014.8 - 0.0
05/01:00am 20.1 23.0 18.2 89 1.2 CALM 0 0 0 0 1015.1 - 0.0
05/12:30am 20.2 23.2 18.5 90 1.1 CALM 0 0 0 0 1015.4 - 0.0
05/12:00am 20.1 23.2 18.6 91 1.0 CALM 0 0 0 0 1015.5 1013.2 0.0
 
Date/Time
EST
Temp
°C
App
Temp
°C
Dew
Point
Rel
Hum
%
Delta-T
°C
Wind Press
QNH
hPa
Press
MSL
hPa
Rain
since 9 am
mm
Dir
 
Spd
km/h
Gust
km/h
Spd
kts
Gust
kts
04/11:30pm 20.0 23.0 18.5 91 1.0 CALM 0 0 0 0 1015.6 - 0.0
04/11:00pm 19.7 22.7 18.4 92 0.8 CALM 0 0 0 0 1015.5 - 0.0
04/10:30pm 19.3 21.9 17.4 89 1.2 CALM 0 0 0 0 1015.5 - 0.0
04/10:00pm 19.5 22.1 17.6 89 1.2 CALM 0 6 0 3 1015.5 - 0.0
04/09:30pm 19.7 21.4 17.1 85 1.6 NW 4 7 2 4 1015.4 - 0.0
04/09:00pm 20.2 22.8 17.6 85 1.6 CALM 0 0 0 0 1015.1 1012.8 0.0
04/08:30pm 20.9 23.7 17.9 83 1.9 CALM 0 0 0 0 1014.9 - 0.0
04/08:00pm 21.1 23.1 17.9 82 2.0 N 4 7 2 4 1014.6 - 0.0
04/07:30pm 21.6 23.7 18.0 80 2.3 N 4 11 2 6 1014.4 - 0.0
04/07:00pm 22.1 23.6 18.1 78 2.5 N 7 13 4 7 1014.2 - 0.0
04/06:30pm 22.4 22.7 18.0 76 2.8 N 13 19 7 10 1014.0 - 0.0
04/06:00pm 23.0 23.5 17.5 71 3.5 NNE 11 20 6 11 1013.9 1011.6 0.0
04/05:30pm 24.0 23.8 17.5 67 4.1 NNE 15 26 8 14 1013.4 - 0.0
04/05:00pm 25.2 24.7 17.9 64 4.7 NNE 17 20 9 11 1012.9 - 0.0
04/04:30pm 26.4 26.6 17.7 58 5.6 N 13 22 7 12 1012.5 - 0.0
04/04:00pm 26.9 26.7 17.7 57 5.9 N 15 24 8 13 1012.2 - 0.0
04/03:30pm 28.3 28.7 17.2 51 7.1 NE 11 19 6 10 1012.2 - 0.0
04/03:00pm 28.7 28.6 13.8 40 9.1 NE 7 15 4 8 1012.4 1010.1 0.0
04/02:30pm 28.8 27.6 13.9 40 9.1 E 13 20 7 11 1012.6 - 0.0
04/02:00pm 29.0 27.8 14.0 39 9.2 SSE 13 22 7 12 1012.9 - 0.0
04/01:30pm 28.1 27.2 13.6 41 8.8 ESE 11 20 6 11 1013.4 - 0.0
04/01:00pm 26.8 25.5 14.9 48 7.3 SSE 15 30 8 16 1014.0 - 0.0
04/12:30pm 27.9 28.2 14.9 45 8.0 E 7 15 4 8 1014.5 - 0.0
04/12:00pm 26.5 25.8 14.3 47 7.4 SSE 11 15 6 8 1015.0 1012.7 0.0
04/11:30am 28.2 29.5 16.1 47 7.6 ESE 4 13 2 7 1015.7 - 0.0
04/11:00am 26.0 26.8 16.3 55 6.1 E 7 13 4 7 1016.2 - 0.0
04/10:30am 25.5 26.6 16.6 58 5.6 E 6 13 3 7 1016.5 - 0.0
04/10:00am 25.3 26.2 16.7 59 5.4 ESE 7 15 4 8 1016.5 - 0.0
04/09:30am 24.5 25.4 16.7 61 4.9 SSE 7 17 4 9 1016.2 - 0.0
04/09:00am 24.2 24.3 17.4 65 4.3 SE 13 19 7 10 1016.0 1013.7 0.0
04/08:30am 23.0 22.5 16.8 68 3.9 SSE 15 20 8 11 1015.7 - 0.0
04/08:00am 21.9 22.2 17.1 74 3.0 SSE 11 17 6 9 1015.4 - 0.0
04/07:30am 20.3 20.6 17.1 82 2.0 SSE 11 15 6 8 1015.2 - 0.0
04/07:00am 18.5 19.3 17.2 92 0.8 SE 9 11 5 6 1015.1 - 0.0
04/06:30am 17.3 18.7 15.5 89 1.1 S 2 6 1 3 1014.8 - 0.0
04/06:00am 17.6 19.4 15.6 88 1.2 CALM 0 0 0 0 1014.4 1012.1 0.0
04/05:30am 18.4 20.6 16.4 88 1.2 CALM 0 0 0 0 1014.2 - 0.0
04/05:00am 18.9 19.5 16.9 88 1.2 SSE 9 11 5 6 1014.1 - 0.0
04/04:30am 19.3 20.5 17.3 88 1.2 S 7 9 4 5 1014.1 - 0.0
04/04:00am 20.0 20.7 18.0 88 1.3 SSE 11 13 6 7 1014.1 - 0.0
04/03:30am 19.9 21.3 18.6 92 0.8 SE 9 11 5 6 1014.2 - 0.0
04/03:00am 19.5 21.1 18.2 92 0.8 ESE 7 7 4 4 1014.2 1011.9 0.0
04/02:30am 19.7 21.7 17.8 89 1.2 ESE 4 7 2 4 1014.3 - 0.0
04/02:00am 20.3 23.4 18.6 90 1.1 CALM 0 0 0 0 1014.6 - 0.0
04/01:30am 20.6 23.4 18.9 90 1.1 ESE 2 7 1 4 1015.1 - 0.0
04/01:00am 20.4 23.6 18.9 91 1.0 CALM 0 7 0 4 1015.5 - 0.0
04/12:30am 20.6 22.5 18.9 90 1.1 ESE 7 9 4 5 1015.7 - 0.0
04/12:00am 20.6 22.7 19.3 92 0.8 E 7 9 4 5 1015.9 1013.6 0.0
 
Date/Time
EST
Temp
°C
App
Temp
°C
Dew
Point
Rel
Hum
%
Delta-T
°C
Wind Press
QNH
hPa
Press
MSL
hPa
Rain
since 9 am
mm
Dir
 
Spd
km/h
Gust
km/h
Spd
kts
Gust
kts
03/11:30pm 20.6 23.5 19.1 91 1.0 N 2 9 1 5 1016.0 - 0.0
03/11:00pm 20.3 23.4 18.6 90 1.1 CALM 0 0 0 0 1016.0 - 0.0
03/10:30pm 20.8 22.7 18.9 89 1.2 NNW 7 11 4 6 1015.9 - 0.0
03/10:00pm 21.1 24.4 19.0 88 1.3 CALM 0 0 0 0 1015.7 - 0.0
03/09:30pm 21.1 24.5 19.4 90 1.1 CALM 0 0 0 0 1015.7 - 0.0

Other Formats:

Comma delimited format used in spreadsheet applications
http://www.bom.gov.au/fwo/IDQ60801/IDQ60801.95286.axf

JavaScript Object Notation format (JSON) in row-major order
http://www.bom.gov.au/fwo/IDQ60801/IDQ60801.95286.json